createdAt,value
2023-02-25T00:02:03.542Z,-0.41
2023-02-25T00:04:32.985Z,-0.42
2023-02-25T00:07:22.959Z,-0.41
2023-02-25T00:09:54.474Z,-0.40
2023-02-25T00:12:24.388Z,-0.40
2023-02-25T00:14:52.969Z,-0.40
2023-02-25T00:17:21.404Z,-0.40
2023-02-25T00:19:50.489Z,-0.41
2023-02-25T00:22:21.789Z,-0.40
2023-02-25T00:24:56.366Z,-0.40
2023-02-25T00:27:24.932Z,-0.41
2023-02-25T00:29:54.378Z,-0.43
2023-02-25T00:32:23.199Z,-0.44
2023-02-25T00:34:52.467Z,-0.46
2023-02-25T00:37:21.600Z,-0.49
2023-02-25T00:39:50.066Z,-0.50
2023-02-25T00:42:18.789Z,-0.50
2023-02-25T00:44:49.701Z,-0.51
2023-02-25T00:47:19.306Z,-0.51
2023-02-25T00:49:53.252Z,-0.50
2023-02-25T00:52:22.097Z,-0.50
2023-02-25T00:54:50.614Z,-0.49
2023-02-25T00:57:20.378Z,-0.48
2023-02-25T00:59:48.773Z,-0.47
2023-02-25T01:02:17.427Z,-0.47
2023-02-25T01:04:45.846Z,-0.47
2023-02-25T01:07:14.461Z,-0.50
2023-02-25T01:09:43.133Z,-0.50
2023-02-25T01:12:11.829Z,-0.51
2023-02-25T01:14:41.340Z,-0.51
2023-02-25T01:17:10.032Z,-0.53
2023-02-25T01:19:41.913Z,-0.55
2023-02-25T01:22:10.621Z,-0.58
2023-02-25T01:24:39.397Z,-0.58
2023-02-25T01:27:08.976Z,-0.60
2023-02-25T01:29:40.568Z,-0.63
2023-02-25T01:32:12.196Z,-0.66
2023-02-25T01:34:41.205Z,-0.66
2023-02-25T01:37:12.101Z,-0.65
2023-02-25T01:39:41.774Z,-0.64
2023-02-25T01:42:15.262Z,-0.66
2023-02-25T01:45:22.442Z,-0.66
2023-02-25T01:47:52.751Z,-0.67
2023-02-25T01:50:24.088Z,-0.67
2023-02-25T01:52:52.523Z,-0.69
2023-02-25T01:55:20.961Z,-0.69
2023-02-25T01:57:50.548Z,-0.69
2023-02-25T02:00:19.064Z,-0.68
2023-02-25T02:02:48.051Z,-0.67
2023-02-25T02:05:16.331Z,-0.68
2023-02-25T02:07:44.774Z,-0.65
2023-02-25T02:10:13.220Z,-0.62
2023-02-25T02:12:43.277Z,-0.59
2023-02-25T02:15:14.358Z,-0.57
2023-02-25T02:18:00.552Z,-0.55
2023-02-25T02:20:45.095Z,-0.53
2023-02-25T02:23:23.068Z,-0.50
2023-02-25T02:26:27.599Z,-0.51
2023-02-25T02:29:36.370Z,-0.51
2023-02-25T02:32:19.410Z,-0.54
2023-02-25T02:35:06.516Z,-0.55
2023-02-25T02:37:54.445Z,-0.57
2023-02-25T02:40:32.391Z,-0.58
2023-02-25T02:43:01.584Z,-0.59
2023-02-25T02:45:49.464Z,-0.58
2023-02-25T02:48:22.796Z,-0.58
2023-02-25T02:51:15.041Z,-0.57
2023-02-25T02:53:47.432Z,-0.57
2023-02-25T02:56:17.399Z,-0.56
2023-02-25T02:58:59.226Z,-0.55
2023-02-25T03:01:33.022Z,-0.52
2023-02-25T03:04:06.177Z,-0.49
2023-02-25T03:06:42.138Z,-0.46
2023-02-25T03:09:13.309Z,-0.42
2023-02-25T03:11:43.749Z,-0.39
2023-02-25T03:14:13.814Z,-0.36
2023-02-25T03:16:49.927Z,-0.33
2023-02-25T03:19:30.218Z,-0.30
2023-02-25T03:22:01.212Z,-0.28
2023-02-25T03:24:35.062Z,-0.27
2023-02-25T03:27:21.741Z,-0.25
2023-02-25T03:29:57.715Z,-0.22
2023-02-25T03:32:27.098Z,-0.19
2023-02-25T03:34:58.147Z,-0.15
2023-02-25T03:37:28.799Z,-0.13
2023-02-25T03:39:59.010Z,-0.11
2023-02-25T03:42:32.996Z,-0.10
2023-02-25T03:45:02.855Z,-0.10
2023-02-25T03:47:33.177Z,-0.10
2023-02-25T03:50:04.417Z,-0.10
2023-02-25T03:52:33.110Z,-0.10
2023-02-25T03:55:05.417Z,-0.09
2023-02-25T03:57:39.038Z,-0.09
2023-02-25T04:00:17.883Z,-0.08
2023-02-25T04:02:47.899Z,-0.06
2023-02-25T04:05:17.170Z,-0.05
2023-02-25T04:07:47.378Z,-0.05
2023-02-25T04:10:16.841Z,-0.04
2023-02-25T04:12:47.116Z,-0.01
2023-02-25T04:15:15.491Z,0.01
2023-02-25T04:17:45.900Z,0.03
2023-02-25T04:20:17.629Z,0.05
2023-02-25T04:22:45.985Z,0.06
2023-02-25T04:25:17.447Z,0.07
2023-02-25T04:27:46.176Z,0.08
2023-02-25T04:30:15.126Z,0.10
2023-02-25T04:32:44.332Z,0.12
2023-02-25T04:35:16.113Z,0.16
2023-02-25T04:37:44.465Z,0.19
2023-02-25T04:40:19.272Z,0.21
2023-02-25T04:42:52.305Z,0.25
2023-02-25T04:45:27.006Z,0.27
2023-02-25T04:47:57.936Z,0.27
2023-02-25T04:50:26.402Z,0.28
2023-02-25T04:52:55.467Z,0.30
2023-02-25T04:55:23.865Z,0.33
2023-02-25T04:57:53.612Z,0.34
2023-02-25T05:00:24.380Z,0.37
2023-02-25T05:02:52.792Z,0.40
2023-02-25T05:05:21.808Z,0.43
2023-02-25T05:07:50.096Z,0.50
2023-02-25T05:10:19.782Z,0.56
2023-02-25T05:12:48.495Z,0.64
2023-02-25T05:15:21.184Z,0.72
2023-02-25T05:17:52.565Z,0.80
2023-02-25T05:20:20.934Z,0.87
2023-02-25T05:22:49.338Z,0.89
2023-02-25T05:25:18.103Z,0.91
2023-02-25T05:27:46.499Z,0.93
2023-02-25T05:30:15.380Z,0.94
2023-02-25T05:32:43.887Z,0.95
2023-02-25T05:35:12.800Z,0.95
2023-02-25T05:37:41.333Z,0.96
2023-02-25T05:40:14.321Z,0.97
2023-02-25T05:42:42.943Z,0.98
2023-02-25T05:45:11.565Z,0.97
2023-02-25T05:47:40.547Z,0.98
2023-02-25T05:50:09.706Z,0.99
2023-02-25T05:52:39.343Z,0.98
2023-02-25T05:55:09.633Z,0.99
2023-02-25T05:57:38.198Z,1.01
2023-02-25T06:00:10.191Z,1.01
2023-02-25T06:02:44.614Z,1.01
2023-02-25T06:05:13.230Z,1.01
2023-02-25T06:07:44.229Z,1.02
2023-02-25T06:10:12.684Z,1.04
2023-02-25T06:12:46.675Z,1.05
2023-02-25T06:15:15.427Z,1.08
2023-02-25T06:17:43.941Z,1.11
2023-02-25T06:20:16.692Z,1.12
2023-02-25T06:22:45.252Z,1.12
2023-02-25T06:25:13.676Z,1.14
2023-02-25T06:27:44.145Z,1.15
2023-02-25T06:30:13.134Z,1.16
2023-02-25T06:32:42.279Z,1.17
2023-02-25T06:35:11.109Z,1.17
2023-02-25T06:37:43.162Z,1.20
2023-02-25T06:40:15.760Z,1.24
2023-02-25T06:42:44.140Z,1.27
2023-02-25T06:45:12.481Z,1.27
2023-02-25T06:47:41.048Z,1.26
2023-02-25T06:50:10.121Z,1.24
2023-02-25T06:52:38.854Z,1.22
2023-02-25T06:55:07.661Z,1.19
2023-02-25T06:57:37.190Z,1.17
2023-02-25T07:00:07.510Z,1.17
2023-02-25T07:02:35.910Z,1.16
2023-02-25T07:05:05.826Z,1.16
2023-02-25T07:07:35.825Z,1.18
2023-02-25T07:10:05.065Z,1.19
2023-02-25T07:12:38.176Z,1.20
2023-02-25T07:15:08.409Z,1.22
2023-02-25T07:17:37.823Z,1.24
2023-02-25T07:20:09.361Z,1.26
2023-02-25T07:22:38.133Z,1.27
2023-02-25T07:25:11.974Z,1.30
2023-02-25T07:27:44.494Z,1.32
2023-02-25T07:30:18.472Z,1.36
2023-02-25T07:32:47.172Z,1.39
2023-02-25T07:35:16.867Z,1.42
2023-02-25T07:37:45.187Z,1.45
2023-02-25T07:40:17.052Z,1.46
2023-02-25T07:42:45.904Z,1.48
2023-02-25T07:45:14.509Z,1.48
2023-02-25T07:47:42.869Z,1.48
2023-02-25T07:50:13.109Z,1.50
2023-02-25T07:52:43.452Z,1.53
2023-02-25T07:55:11.998Z,1.59
2023-02-25T07:57:41.320Z,1.69
2023-02-25T08:00:10.612Z,1.77
2023-02-25T08:02:44.203Z,1.81
2023-02-25T08:05:12.832Z,1.81
2023-02-25T08:07:45.323Z,1.84
2023-02-25T08:10:14.454Z,1.87
2023-02-25T08:12:44.606Z,1.92
2023-02-25T08:15:16.131Z,1.94
2023-02-25T08:17:44.774Z,1.96
2023-02-25T08:20:14.224Z,1.98
2023-02-25T08:22:42.723Z,2.02
2023-02-25T08:25:11.244Z,2.06
2023-02-25T08:27:40.561Z,2.13
2023-02-25T08:30:13.204Z,2.21
2023-02-25T08:32:43.155Z,2.29
2023-02-25T08:35:16.115Z,2.41
2023-02-25T08:37:48.533Z,2.50
2023-02-25T08:40:19.859Z,2.63
2023-02-25T08:42:48.898Z,2.78
2023-02-25T08:45:17.706Z,2.98
2023-02-25T08:47:47.461Z,3.29
2023-02-25T08:50:17.520Z,3.55
2023-02-25T08:52:48.076Z,3.69
2023-02-25T08:55:16.848Z,3.79
2023-02-25T08:57:46.129Z,3.90
2023-02-25T09:00:17.795Z,4.01
2023-02-25T09:02:48.340Z,4.10
2023-02-25T09:05:18.950Z,4.15
2023-02-25T09:07:48.866Z,4.20
2023-02-25T09:10:18.990Z,4.24
2023-02-25T09:12:47.703Z,4.26
2023-02-25T09:15:21.991Z,4.29
2023-02-25T09:17:53.317Z,4.31
2023-02-25T09:20:21.859Z,4.34
2023-02-25T09:22:50.594Z,4.47
2023-02-25T09:25:19.011Z,4.76
2023-02-25T09:27:50.357Z,5.11
2023-02-25T09:30:19.051Z,5.34
2023-02-25T09:32:50.220Z,5.49
2023-02-25T09:35:18.905Z,5.59
2023-02-25T09:37:47.244Z,5.69
2023-02-25T09:40:18.310Z,5.83
2023-02-25T09:43:03.734Z,6.12
2023-02-25T09:45:33.748Z,6.58
2023-02-25T09:48:06.586Z,7.03
2023-02-25T09:50:43.890Z,7.49
2023-02-25T09:53:34.041Z,7.97
2023-02-25T09:56:03.211Z,8.52
2023-02-25T09:58:37.419Z,8.92
2023-02-25T10:01:19.209Z,9.16
2023-02-25T10:03:53.772Z,9.35
2023-02-25T10:06:39.685Z,9.55
2023-02-25T10:09:50.808Z,9.88
2023-02-25T10:12:28.525Z,10.20
2023-02-25T10:15:15.010Z,10.68
2023-02-25T10:18:11.986Z,11.24
2023-02-25T10:20:40.321Z,11.65
2023-02-25T10:23:26.966Z,11.72
2023-02-25T10:26:01.188Z,11.81
2023-02-25T10:28:30.272Z,11.78
2023-02-25T10:31:16.376Z,11.56
2023-02-25T10:33:47.155Z,11.14
2023-02-25T10:36:34.128Z,10.87
2023-02-25T10:39:02.407Z,10.68
2023-02-25T10:41:30.785Z,10.47
2023-02-25T10:43:59.069Z,10.19
2023-02-25T10:46:41.926Z,9.87
2023-02-25T10:49:21.808Z,9.49
2023-02-25T10:52:03.507Z,9.09
2023-02-25T10:54:33.571Z,8.77
2023-02-25T10:57:14.333Z,8.55
2023-02-25T10:59:43.632Z,8.44
2023-02-25T11:02:23.675Z,8.40
2023-02-25T11:04:52.780Z,8.31
2023-02-25T11:07:43.473Z,8.22
2023-02-25T11:10:19.780Z,8.16
2023-02-25T11:12:53.971Z,8.15
2023-02-25T11:15:38.160Z,8.16
2023-02-25T11:18:12.418Z,8.20
2023-02-25T11:20:42.069Z,8.19
2023-02-25T11:23:18.085Z,8.18
2023-02-25T11:25:46.798Z,8.17
2023-02-25T11:28:39.968Z,8.16
2023-02-25T11:31:13.180Z,8.13
2023-02-25T11:33:44.128Z,8.16
2023-02-25T11:36:13.633Z,8.22
2023-02-25T11:38:42.683Z,8.27
2023-02-25T11:41:22.350Z,8.27
2023-02-25T11:43:51.535Z,8.22
2023-02-25T11:46:25.446Z,8.18
2023-02-25T11:48:56.876Z,8.22
2023-02-25T11:51:28.990Z,8.22
2023-02-25T11:54:21.940Z,8.28
2023-02-25T11:56:57.857Z,8.36
2023-02-25T11:59:39.866Z,8.47
2023-02-25T12:02:20.869Z,8.64
2023-02-25T12:04:49.746Z,8.87
2023-02-25T12:07:51.155Z,9.07
2023-02-25T12:10:24.512Z,9.09
2023-02-25T12:13:07.918Z,9.08
2023-02-25T12:15:55.561Z,9.11
2023-02-25T12:18:27.792Z,9.23
2023-02-25T12:21:03.915Z,9.36
2023-02-25T12:23:43.148Z,9.42
2023-02-25T12:26:14.401Z,9.44
2023-02-25T12:28:57.960Z,9.42
2023-02-25T12:31:39.427Z,9.38
2023-02-25T12:34:11.524Z,9.35
2023-02-25T12:36:50.904Z,9.34
2023-02-25T12:39:23.304Z,9.35
2023-02-25T12:42:10.379Z,9.41
2023-02-25T12:45:15.420Z,9.48
2023-02-25T12:48:05.485Z,9.58
2023-02-25T12:51:10.212Z,9.65
2023-02-25T12:53:45.623Z,9.74
2023-02-25T12:56:17.339Z,9.77
2023-02-25T12:59:11.231Z,9.79
2023-02-25T13:01:52.060Z,9.81
2023-02-25T13:04:32.479Z,9.77
2023-02-25T13:07:06.629Z,9.75
2023-02-25T13:10:23.916Z,9.78
2023-02-25T13:12:54.045Z,9.85
2023-02-25T13:15:23.627Z,9.92
2023-02-25T13:18:16.950Z,9.97
2023-02-25T13:20:57.505Z,9.98
2023-02-25T13:23:40.769Z,9.94
2023-02-25T13:26:59.832Z,9.89
2023-02-25T13:29:43.267Z,9.85
2023-02-25T13:32:29.453Z,9.81
2023-02-25T13:35:20.069Z,9.79
2023-02-25T13:37:52.730Z,9.79
2023-02-25T13:40:39.912Z,9.76
2023-02-25T13:43:23.496Z,9.73
2023-02-25T13:46:04.192Z,9.72
2023-02-25T13:48:39.454Z,9.71
2023-02-25T13:51:08.195Z,9.69
2023-02-25T13:53:54.744Z,9.68
2023-02-25T13:56:38.211Z,9.66
2023-02-25T13:59:40.785Z,9.60
2023-02-25T14:02:47.313Z,9.54
2023-02-25T14:05:23.938Z,9.49
2023-02-25T14:08:08.434Z,9.46
2023-02-25T14:10:45.536Z,9.43
2023-02-25T14:13:27.104Z,9.38
2023-02-25T14:15:59.892Z,9.35
2023-02-25T14:18:45.359Z,9.33
2023-02-25T14:21:40.338Z,9.30
2023-02-25T14:24:46.934Z,9.23
2023-02-25T14:27:22.540Z,9.16
2023-02-25T14:30:27.420Z,9.11
2023-02-25T14:32:58.753Z,9.07
2023-02-25T14:36:04.933Z,8.98
2023-02-25T14:38:46.633Z,8.80
2023-02-25T14:41:34.520Z,8.63
2023-02-25T14:44:06.635Z,8.46
2023-02-25T14:46:40.688Z,8.33
2023-02-25T14:49:21.230Z,8.16
2023-02-25T14:52:35.946Z,8.01
2023-02-25T14:55:14.410Z,7.86
2023-02-25T14:57:52.588Z,7.75
2023-02-25T15:00:41.229Z,7.66
2023-02-25T15:03:18.816Z,7.55
2023-02-25T15:06:24.978Z,7.47
2023-02-25T15:09:14.704Z,7.40
2023-02-25T15:11:50.895Z,7.34
2023-02-25T15:14:53.202Z,7.30
2023-02-25T15:17:50.519Z,7.26
2023-02-25T15:20:40.267Z,7.23
2023-02-25T15:23:19.939Z,7.21
2023-02-25T15:26:19.807Z,7.22
2023-02-25T15:28:53.658Z,7.22
2023-02-25T15:31:31.469Z,7.22
2023-02-25T15:34:21.799Z,7.22
2023-02-25T15:36:52.149Z,7.21
2023-02-25T15:39:42.120Z,7.19
2023-02-25T15:42:12.262Z,7.17
2023-02-25T15:44:42.269Z,7.15
2023-02-25T15:47:24.316Z,7.13
2023-02-25T15:49:53.341Z,7.10
2023-02-25T15:52:58.842Z,7.10
2023-02-25T15:55:32.072Z,7.12
2023-02-25T15:58:00.689Z,7.16
2023-02-25T16:01:28.004Z,7.18
2023-02-25T16:03:56.644Z,7.21
2023-02-25T16:06:32.431Z,7.21
2023-02-25T16:09:10.811Z,7.22
2023-02-25T16:11:51.784Z,7.24
2023-02-25T16:14:23.079Z,7.27
2023-02-25T16:16:58.414Z,7.29
2023-02-25T16:19:33.625Z,7.29
2023-02-25T16:22:23.308Z,7.30
2023-02-25T16:24:56.325Z,7.27
2023-02-25T16:27:35.012Z,7.26
2023-02-25T16:30:23.083Z,7.24
2023-02-25T16:33:14.530Z,7.17
2023-02-25T16:36:07.779Z,7.12
2023-02-25T16:38:45.721Z,7.05
2023-02-25T16:41:14.832Z,6.99
2023-02-25T16:43:43.783Z,6.93
2023-02-25T16:46:15.521Z,6.85
2023-02-25T16:48:53.817Z,6.78
2023-02-25T16:51:32.161Z,6.71
2023-02-25T16:54:05.567Z,6.65
2023-02-25T16:56:34.736Z,6.59
2023-02-25T16:59:05.989Z,6.51
2023-02-25T17:01:35.606Z,6.44
2023-02-25T17:04:21.876Z,6.36
2023-02-25T17:07:18.061Z,6.29
2023-02-25T17:09:49.547Z,6.29
2023-02-25T17:12:45.770Z,6.29
2023-02-25T17:15:24.176Z,6.30
2023-02-25T17:18:13.233Z,6.33
2023-02-25T17:20:41.583Z,6.36
2023-02-25T17:23:11.297Z,6.41
2023-02-25T17:25:42.156Z,6.47
2023-02-25T17:28:35.901Z,6.53
2023-02-25T17:31:15.838Z,6.58
2023-02-25T17:33:49.659Z,6.61
2023-02-25T17:36:25.530Z,6.62
2023-02-25T17:38:56.946Z,6.63
2023-02-25T17:41:26.138Z,6.63
2023-02-25T17:43:54.542Z,6.63
2023-02-25T17:46:36.531Z,6.62
2023-02-25T17:49:28.609Z,6.62
2023-02-25T17:52:01.301Z,6.63
2023-02-25T17:54:31.592Z,6.63
2023-02-25T17:57:09.034Z,6.64
2023-02-25T17:59:39.626Z,6.64
2023-02-25T18:02:30.283Z,6.63
2023-02-25T18:05:11.307Z,6.60
2023-02-25T18:07:42.431Z,6.56
2023-02-25T18:10:27.600Z,6.52
2023-02-25T18:12:56.217Z,6.46
2023-02-25T18:15:26.715Z,6.38
2023-02-25T18:17:56.187Z,6.29
2023-02-25T18:20:29.012Z,6.21
2023-02-25T18:23:05.355Z,6.12
2023-02-25T18:25:38.631Z,6.07
2023-02-25T18:28:13.890Z,6.03
2023-02-25T18:30:43.437Z,6.01
2023-02-25T18:33:12.599Z,5.98
2023-02-25T18:35:42.940Z,5.96
2023-02-25T18:38:17.590Z,5.95
2023-02-25T18:40:46.397Z,5.91
2023-02-25T18:43:19.937Z,5.89
2023-02-25T18:45:48.593Z,5.89
2023-02-25T18:48:19.314Z,5.90
2023-02-25T18:50:47.790Z,5.92
2023-02-25T18:53:21.528Z,5.94
2023-02-25T18:55:51.853Z,6.00
2023-02-25T18:58:24.998Z,6.08
2023-02-25T19:00:56.099Z,6.12
2023-02-25T19:03:34.305Z,6.12
2023-02-25T19:06:03.625Z,6.11
2023-02-25T19:08:36.040Z,6.10
2023-02-25T19:11:04.636Z,6.09
2023-02-25T19:13:37.742Z,6.09
2023-02-25T19:16:07.041Z,6.14
2023-02-25T19:18:36.963Z,6.20
2023-02-25T19:21:07.038Z,6.27
2023-02-25T19:23:35.584Z,6.32
2023-02-25T19:26:05.079Z,6.35
2023-02-25T19:28:35.378Z,6.35
2023-02-25T19:31:06.039Z,6.34
2023-02-25T19:33:35.390Z,6.33
2023-02-25T19:36:04.202Z,6.32
2023-02-25T19:38:32.950Z,6.31
2023-02-25T19:41:03.072Z,6.31
2023-02-25T19:43:32.286Z,6.31
2023-02-25T19:46:01.016Z,6.32
2023-02-25T19:48:29.649Z,6.34
2023-02-25T19:50:57.964Z,6.36
2023-02-25T19:53:26.393Z,6.38
2023-02-25T19:55:57.598Z,6.40
2023-02-25T19:58:26.368Z,6.42
2023-02-25T20:01:02.617Z,6.47
2023-02-25T20:03:31.282Z,6.51
2023-02-25T20:06:05.949Z,6.56
2023-02-25T20:08:36.956Z,6.62
2023-02-25T20:11:09.998Z,6.65
2023-02-25T20:13:38.778Z,6.70
2023-02-25T20:16:07.713Z,6.77
2023-02-25T20:18:36.396Z,6.87
2023-02-25T20:21:05.534Z,6.95
2023-02-25T20:23:34.469Z,7.01
2023-02-25T20:26:07.231Z,7.04
2023-02-25T20:28:36.275Z,7.06
2023-02-25T20:31:11.401Z,7.07
2023-02-25T20:33:40.269Z,7.08
2023-02-25T20:36:41.491Z,7.09
2023-02-25T20:39:27.700Z,7.09
2023-02-25T20:41:56.326Z,7.09
2023-02-25T20:44:24.745Z,7.10
2023-02-25T20:46:57.725Z,7.09
2023-02-25T20:49:27.106Z,7.05
2023-02-25T20:51:59.416Z,7.02
2023-02-25T20:54:27.973Z,7.02
2023-02-25T20:57:02.665Z,7.03
2023-02-25T20:59:31.374Z,7.05
2023-02-25T21:02:01.889Z,7.08
2023-02-25T21:04:30.564Z,7.12
2023-02-25T21:06:59.298Z,7.14
2023-02-25T21:09:33.614Z,7.14
2023-02-25T21:12:04.090Z,7.07
2023-02-25T21:14:32.574Z,6.99
2023-02-25T21:17:02.497Z,6.99
2023-02-25T21:19:31.102Z,7.04
2023-02-25T21:22:04.095Z,7.11
2023-02-25T21:24:34.873Z,7.17
2023-02-25T21:27:03.642Z,7.24
2023-02-25T21:29:34.153Z,7.29
2023-02-25T21:32:02.588Z,7.33
2023-02-25T21:34:33.053Z,7.36
2023-02-25T21:37:01.355Z,7.38
2023-02-25T21:39:29.762Z,7.38
2023-02-25T21:41:58.605Z,7.40
2023-02-25T21:44:30.891Z,7.41
2023-02-25T21:46:59.399Z,7.40
2023-02-25T21:49:31.478Z,7.41
2023-02-25T21:52:00.524Z,7.42
2023-02-25T21:54:28.801Z,7.43
2023-02-25T21:56:57.091Z,7.44
2023-02-25T21:59:27.188Z,7.45
2023-02-25T22:01:55.583Z,7.46
2023-02-25T22:04:24.120Z,7.47
2023-02-25T22:06:53.900Z,7.48
2023-02-25T22:09:23.063Z,7.49
2023-02-25T22:11:51.852Z,7.50
2023-02-25T22:14:26.389Z,7.51
2023-02-25T22:16:54.769Z,7.51
2023-02-25T22:19:23.323Z,7.52
2023-02-25T22:21:51.821Z,7.53
2023-02-25T22:24:20.382Z,7.54
2023-02-25T22:26:52.251Z,7.53
2023-02-25T22:29:20.752Z,7.53
2023-02-25T22:31:49.838Z,7.53
2023-02-25T22:34:18.318Z,7.54
2023-02-25T22:36:48.017Z,7.54
2023-02-25T22:39:16.597Z,7.54
2023-02-25T22:41:45.140Z,7.52
2023-02-25T22:44:22.045Z,7.48
2023-02-25T22:46:51.427Z,7.44
2023-02-25T22:49:20.130Z,7.40
2023-02-25T22:51:48.684Z,7.37
2023-02-25T22:54:19.159Z,7.33
2023-02-25T22:56:49.920Z,7.31
2023-02-25T22:59:18.422Z,7.32
2023-02-25T23:01:46.900Z,7.33
2023-02-25T23:04:16.559Z,7.34
2023-02-25T23:06:45.854Z,7.35
2023-02-25T23:09:14.822Z,7.35
2023-02-25T23:11:43.778Z,7.36
2023-02-25T23:14:12.729Z,7.35
2023-02-25T23:16:43.381Z,7.33
2023-02-25T23:19:14.421Z,7.31
2023-02-25T23:21:43.539Z,7.25
2023-02-25T23:24:19.785Z,7.17
2023-02-25T23:26:50.876Z,7.08
2023-02-25T23:29:19.681Z,7.02
2023-02-25T23:31:49.316Z,6.92
2023-02-25T23:34:20.344Z,6.84
2023-02-25T23:36:50.220Z,6.78
2023-02-25T23:39:18.936Z,6.71
2023-02-25T23:44:23.582Z,6.62
2023-02-25T23:46:54.982Z,6.57
2023-02-25T23:49:23.458Z,6.54
2023-02-25T23:51:52.873Z,6.52
2023-02-25T23:54:22.242Z,6.50
2023-02-25T23:56:51.682Z,6.48
2023-02-25T23:59:22.600Z,6.46
